sensor_id;sensor_type;location;lat;lon;timestamp;pressure;altitude;pressure_sealevel;temperature;humidity
11830;BME280;5972;42.134;24.718;2022-08-25T00:01:22;99259.09;;;23.44;100.00
11830;BME280;5972;42.134;24.718;2022-08-25T00:03:49;99261.00;;;23.47;100.00
11830;BME280;5972;42.134;24.718;2022-08-25T00:06:17;99273.44;;;23.39;100.00
11830;BME280;5972;42.134;24.718;2022-08-25T00:08:49;99275.28;;;23.46;100.00
11830;BME280;5972;42.134;24.718;2022-08-25T00:11:18;99270.16;;;23.44;100.00
11830;BME280;5972;42.134;24.718;2022-08-25T00:13:47;99272.66;;;23.39;100.00
11830;BME280;5972;42.134;24.718;2022-08-25T00:16:17;99277.31;;;23.42;100.00
11830;BME280;5972;42.134;24.718;2022-08-25T00:18:47;99274.88;;;23.44;100.00
11830;BME280;5972;42.134;24.718;2022-08-25T00:21:15;99284.66;;;23.32;100.00
11830;BME280;5972;42.134;24.718;2022-08-25T00:23:42;99273.31;;;23.14;100.00
11830;BME280;5972;42.134;24.718;2022-08-25T00:26:12;99286.84;;;23.25;100.00
11830;BME280;5972;42.134;24.718;2022-08-25T00:28:40;99279.31;;;23.25;100.00
11830;BME280;5972;42.134;24.718;2022-08-25T00:31:10;99263.91;;;23.28;100.00
11830;BME280;5972;42.134;24.718;2022-08-25T00:33:37;99266.66;;;23.28;100.00
11830;BME280;5972;42.134;24.718;2022-08-25T00:36:04;99275.31;;;23.42;100.00
11830;BME280;5972;42.134;24.718;2022-08-25T00:38:32;99273.94;;;23.50;100.00
11830;BME280;5972;42.134;24.718;2022-08-25T00:40:59;99266.34;;;23.54;100.00
11830;BME280;5972;42.134;24.718;2022-08-25T00:43:35;99255.63;;;23.56;100.00
11830;BME280;5972;42.134;24.718;2022-08-25T00:46:05;99259.50;;;23.59;100.00
11830;BME280;5972;42.134;24.718;2022-08-25T00:48:32;99260.63;;;23.61;100.00
11830;BME280;5972;42.134;24.718;2022-08-25T00:50:59;99255.88;;;23.62;100.00
11830;BME280;5972;42.134;24.718;2022-08-25T00:53:30;99253.88;;;23.63;100.00
11830;BME280;5972;42.134;24.718;2022-08-25T00:55:58;99245.91;;;23.65;100.00
11830;BME280;5972;42.134;24.718;2022-08-25T00:58:27;99241.94;;;23.66;100.00
11830;BME280;5972;42.134;24.718;2022-08-25T01:00:57;99238.75;;;23.67;100.00
11830;BME280;5972;42.134;24.718;2022-08-25T01:03:27;99237.88;;;23.70;100.00
11830;BME280;5972;42.134;24.718;2022-08-25T01:05:54;99232.88;;;23.65;100.00
11830;BME280;5972;42.134;24.718;2022-08-25T01:08:25;99232.09;;;23.65;100.00
11830;BME280;5972;42.134;24.718;2022-08-25T01:10:53;99221.50;;;23.63;100.00
11830;BME280;5972;42.134;24.718;2022-08-25T01:13:25;99219.63;;;23.60;100.00
11830;BME280;5972;42.134;24.718;2022-08-25T01:15:56;99212.97;;;23.57;100.00
11830;BME280;5972;42.134;24.718;2022-08-25T01:18:25;99212.13;;;23.60;100.00
11830;BME280;5972;42.134;24.718;2022-08-25T01:20:54;99220.19;;;23.68;100.00
11830;BME280;5972;42.134;24.718;2022-08-25T01:23:22;99210.22;;;23.57;100.00
11830;BME280;5972;42.134;24.718;2022-08-25T01:25:54;99224.47;;;23.69;100.00
11830;BME280;5972;42.134;24.718;2022-08-25T01:28:23;99213.00;;;23.70;100.00
11830;BME280;5972;42.134;24.718;2022-08-25T01:30:50;99225.72;;;23.68;100.00
11830;BME280;5972;42.134;24.718;2022-08-25T01:33:18;99218.66;;;23.79;100.00
11830;BME280;5972;42.134;24.718;2022-08-25T01:35:46;99218.91;;;23.85;100.00
11830;BME280;5972;42.134;24.718;2022-08-25T01:38:14;99220.44;;;23.86;100.00
11830;BME280;5972;42.134;24.718;2022-08-25T01:40:42;99220.66;;;23.79;100.00
11830;BME280;5972;42.134;24.718;2022-08-25T01:43:20;99232.81;;;23.81;100.00
11830;BME280;5972;42.134;24.718;2022-08-25T01:45:51;99226.06;;;23.82;100.00
11830;BME280;5972;42.134;24.718;2022-08-25T01:48:18;99237.13;;;23.82;100.00
11830;BME280;5972;42.134;24.718;2022-08-25T01:50:45;99226.50;;;23.81;100.00
11830;BME280;5972;42.134;24.718;2022-08-25T01:53:18;99214.59;;;23.84;100.00
11830;BME280;5972;42.134;24.718;2022-08-25T01:55:47;99219.88;;;23.78;100.00
11830;BME280;5972;42.134;24.718;2022-08-25T01:58:18;99217.56;;;23.77;100.00
11830;BME280;5972;42.134;24.718;2022-08-25T02:00:45;99220.66;;;23.79;100.00
11830;BME280;5972;42.134;24.718;2022-08-25T02:03:15;99223.75;;;23.68;100.00
11830;BME280;5972;42.134;24.718;2022-08-25T02:05:44;99207.69;;;23.63;100.00
11830;BME280;5972;42.134;24.718;2022-08-25T02:08:13;99212.53;;;23.59;100.00
11830;BME280;5972;42.134;24.718;2022-08-25T02:10:42;99212.88;;;23.61;100.00
11830;BME280;5972;42.134;24.718;2022-08-25T02:13:11;99203.16;;;23.56;100.00
11830;BME280;5972;42.134;24.718;2022-08-25T02:15:40;99192.44;;;23.58;100.00
11830;BME280;5972;42.134;24.718;2022-08-25T02:18:07;99195.19;;;23.58;100.00
11830;BME280;5972;42.134;24.718;2022-08-25T02:20:35;99187.78;;;23.55;100.00
11830;BME280;5972;42.134;24.718;2022-08-25T02:23:03;99188.13;;;23.57;100.00
11830;BME280;5972;42.134;24.718;2022-08-25T02:25:30;99178.94;;;23.48;100.00
11830;BME280;5972;42.134;24.718;2022-08-25T02:27:59;99160.53;;;23.29;100.00
11830;BME280;5972;42.134;24.718;2022-08-25T02:30:26;99184.63;;;23.41;100.00
11830;BME280;5972;42.134;24.718;2022-08-25T02:32:53;99189.47;;;23.37;100.00
11830;BME280;5972;42.134;24.718;2022-08-25T02:35:20;99187.50;;;23.37;100.00
11830;BME280;5972;42.134;24.718;2022-08-25T02:37:49;99180.00;;;23.38;100.00
11830;BME280;5972;42.134;24.718;2022-08-25T02:40:16;99182.09;;;23.34;100.00
11830;BME280;5972;42.134;24.718;2022-08-25T02:42:43;99182.63;;;23.29;100.00
11830;BME280;5972;42.134;24.718;2022-08-25T02:45:11;99190.56;;;23.27;100.00
11830;BME280;5972;42.134;24.718;2022-08-25T02:47:40;99181.75;;;23.32;100.00
11830;BME280;5972;42.134;24.718;2022-08-25T02:50:08;99176.03;;;23.39;100.00
11830;BME280;5972;42.134;24.718;2022-08-25T02:52:35;99167.94;;;23.32;100.00
11830;BME280;5972;42.134;24.718;2022-08-25T02:55:05;99162.19;;;23.26;100.00
11830;BME280;5972;42.134;24.718;2022-08-25T02:57:33;99162.06;;;23.30;100.00
11830;BME280;5972;42.134;24.718;2022-08-25T03:00:00;99155.25;;;23.34;100.00
11830;BME280;5972;42.134;24.718;2022-08-25T03:02:28;99159.88;;;23.37;100.00
11830;BME280;5972;42.134;24.718;2022-08-25T03:04:59;99146.50;;;23.23;100.00
11830;BME280;5972;42.134;24.718;2022-08-25T03:07:27;99164.16;;;23.26;100.00
11830;BME280;5972;42.134;24.718;2022-08-25T03:09:59;99156.22;;;23.28;100.00
11830;BME280;5972;42.134;24.718;2022-08-25T03:12:33;99151.38;;;23.32;100.00
11830;BME280;5972;42.134;24.718;2022-08-25T03:15:00;99143.75;;;23.23;100.00
11830;BME280;5972;42.134;24.718;2022-08-25T03:17:28;99152.81;;;23.24;100.00
11830;BME280;5972;42.134;24.718;2022-08-25T03:19:56;99157.44;;;23.27;100.00
11830;BME280;5972;42.134;24.718;2022-08-25T03:22:23;99145.16;;;23.15;100.00
11830;BME280;5972;42.134;24.718;2022-08-25T03:24:50;99154.09;;;23.19;100.00
11830;BME280;5972;42.134;24.718;2022-08-25T03:27:16;99155.84;;;23.13;100.00
11830;BME280;5972;42.134;24.718;2022-08-25T03:29:42;99148.03;;;23.11;100.00
11830;BME280;5972;42.134;24.718;2022-08-25T03:32:09;99151.22;;;23.10;100.00
11830;BME280;5972;42.134;24.718;2022-08-25T03:34:38;99155.94;;;23.09;100.00
11830;BME280;5972;42.134;24.718;2022-08-25T03:37:04;99167.41;;;23.08;100.00
11830;BME280;5972;42.134;24.718;2022-08-25T03:39:33;99160.56;;;23.00;100.00
11830;BME280;5972;42.134;24.718;2022-08-25T03:42:02;99172.63;;;23.06;100.00
11830;BME280;5972;42.134;24.718;2022-08-25T03:44:30;99174.59;;;23.05;100.00
11830;BME280;5972;42.134;24.718;2022-08-25T03:46:57;99177.19;;;22.96;100.00
11830;BME280;5972;42.134;24.718;2022-08-25T03:49:24;99175.91;;;23.01;100.00
11830;BME280;5972;42.134;24.718;2022-08-25T03:51:53;99173.94;;;23.01;100.00
11830;BME280;5972;42.134;24.718;2022-08-25T03:54:22;99180.00;;;23.09;100.00
11830;BME280;5972;42.134;24.718;2022-08-25T03:56:49;99177.78;;;23.04;100.00
11830;BME280;5972;42.134;24.718;2022-08-25T03:59:16;99180.34;;;23.11;100.00
11830;BME280;5972;42.134;24.718;2022-08-25T04:01:46;99153.91;;;22.97;100.00
11830;BME280;5972;42.134;24.718;2022-08-25T04:04:14;99179.94;;;23.12;100.00
11830;BME280;5972;42.134;24.718;2022-08-25T04:06:43;99178.63;;;23.17;100.00
11830;BME280;5972;42.134;24.718;2022-08-25T04:09:11;99177.06;;;23.16;100.00
11830;BME280;5972;42.134;24.718;2022-08-25T04:11:38;99183.38;;;23.16;100.00
11830;BME280;5972;42.134;24.718;2022-08-25T04:14:05;99189.16;;;23.35;100.00
11830;BME280;5972;42.134;24.718;2022-08-25T04:16:34;99190.25;;;23.37;100.00
11830;BME280;5972;42.134;24.718;2022-08-25T04:19:03;99191.41;;;23.52;100.00
11830;BME280;5972;42.134;24.718;2022-08-25T04:21:30;99196.13;;;23.68;100.00
11830;BME280;5972;42.134;24.718;2022-08-25T04:23:58;99195.25;;;23.84;100.00
11830;BME280;5972;42.134;24.718;2022-08-25T04:26:28;99189.94;;;23.89;100.00
11830;BME280;5972;42.134;24.718;2022-08-25T04:28:56;99192.47;;;24.09;100.00
11830;BME280;5972;42.134;24.718;2022-08-25T04:31:25;99175.25;;;24.18;100.00
11830;BME280;5972;42.134;24.718;2022-08-25T04:33:52;99194.78;;;24.49;100.00
11830;BME280;5972;42.134;24.718;2022-08-25T04:36:19;99189.00;;;24.68;100.00
11830;BME280;5972;42.134;24.718;2022-08-25T04:38:47;99191.13;;;24.86;100.00
11830;BME280;5972;42.134;24.718;2022-08-25T04:41:16;99186.75;;;25.10;100.00
11830;BME280;5972;42.134;24.718;2022-08-25T04:43:45;99184.25;;;25.25;100.00
11830;BME280;5972;42.134;24.718;2022-08-25T04:46:15;99182.56;;;25.49;100.00
11830;BME280;5972;42.134;24.718;2022-08-25T04:48:42;99210.59;;;25.73;100.00
11830;BME280;5972;42.134;24.718;2022-08-25T04:51:11;99208.13;;;26.06;100.00
11830;BME280;5972;42.134;24.718;2022-08-25T04:53:39;99200.59;;;26.56;100.00
11830;BME280;5972;42.134;24.718;2022-08-25T04:56:10;99189.84;;;26.85;100.00
11830;BME280;5972;42.134;24.718;2022-08-25T04:58:38;99198.25;;;27.82;100.00
11830;BME280;5972;42.134;24.718;2022-08-25T05:01:08;99195.22;;;28.69;100.00
11830;BME280;5972;42.134;24.718;2022-08-25T05:03:36;99222.22;;;29.55;100.00
11830;BME280;5972;42.134;24.718;2022-08-25T05:06:04;99187.66;;;30.26;100.00
11830;BME280;5972;42.134;24.718;2022-08-25T05:08:31;99190.38;;;30.75;98.31
11830;BME280;5972;42.134;24.718;2022-08-25T05:11:03;99174.34;;;31.42;91.35
11830;BME280;5972;42.134;24.718;2022-08-25T05:13:30;99163.00;;;32.14;83.10
11830;BME280;5972;42.134;24.718;2022-08-25T05:15:58;99151.75;;;32.51;80.61
11830;BME280;5972;42.134;24.718;2022-08-25T05:18:29;99167.09;;;33.42;70.89
11830;BME280;5972;42.134;24.718;2022-08-25T05:21:00;99165.84;;;33.66;66.09
11830;BME280;5972;42.134;24.718;2022-08-25T05:23:28;99174.22;;;34.16;62.15
11830;BME280;5972;42.134;24.718;2022-08-25T05:25:55;99173.19;;;34.19;60.08
11830;BME280;5972;42.134;24.718;2022-08-25T05:28:26;99168.38;;;33.64;63.88
11830;BME280;5972;42.134;24.718;2022-08-25T05:30:57;99171.19;;;34.03;61.65
11830;BME280;5972;42.134;24.718;2022-08-25T05:33:25;99168.47;;;34.72;58.44
11830;BME280;5972;42.134;24.718;2022-08-25T05:35:52;99166.72;;;35.15;54.20
11830;BME280;5972;42.134;24.718;2022-08-25T05:38:20;99161.59;;;35.55;50.58
11830;BME280;5972;42.134;24.718;2022-08-25T05:40:47;99167.03;;;35.82;49.16
11830;BME280;5972;42.134;24.718;2022-08-25T05:43:17;99167.59;;;35.75;48.72
11830;BME280;5972;42.134;24.718;2022-08-25T05:45:44;99166.28;;;36.55;47.10
11830;BME280;5972;42.134;24.718;2022-08-25T05:48:11;99168.25;;;37.22;43.93
11830;BME280;5972;42.134;24.718;2022-08-25T05:50:40;99167.72;;;37.87;42.59
11830;BME280;5972;42.134;24.718;2022-08-25T05:53:07;99166.13;;;38.18;41.33
11830;BME280;5972;42.134;24.718;2022-08-25T05:55:34;99168.44;;;38.59;40.83
11830;BME280;5972;42.134;24.718;2022-08-25T05:58:01;99167.03;;;38.52;39.88
11830;BME280;5972;42.134;24.718;2022-08-25T06:00:28;99161.06;;;37.71;42.72
11830;BME280;5972;42.134;24.718;2022-08-25T06:02:55;99167.16;;;37.06;43.50
11830;BME280;5972;42.134;24.718;2022-08-25T06:05:22;99151.44;;;37.93;41.35
11830;BME280;5972;42.134;24.718;2022-08-25T06:07:51;99155.19;;;38.54;40.14
11830;BME280;5972;42.134;24.718;2022-08-25T06:10:18;99149.56;;;39.35;37.68
11830;BME280;5972;42.134;24.718;2022-08-25T06:12:46;99127.75;;;39.43;37.94
11830;BME280;5972;42.134;24.718;2022-08-25T06:15:16;99147.00;;;39.86;36.64
11830;BME280;5972;42.134;24.718;2022-08-25T06:17:43;99118.78;;;40.29;35.91
11830;BME280;5972;42.134;24.718;2022-08-25T06:20:12;99140.16;;;40.30;35.46
11830;BME280;5972;42.134;24.718;2022-08-25T06:22:40;99142.50;;;40.47;35.60
11830;BME280;5972;42.134;24.718;2022-08-25T06:25:10;99136.19;;;40.69;34.78
11830;BME280;5972;42.134;24.718;2022-08-25T06:27:39;99141.13;;;41.13;34.47
11830;BME280;5972;42.134;24.718;2022-08-25T06:30:09;99126.34;;;41.06;34.62
11830;BME280;5972;42.134;24.718;2022-08-25T06:32:38;99137.38;;;41.40;33.48
11830;BME280;5972;42.134;24.718;2022-08-25T06:35:08;99137.88;;;41.08;34.14
11830;BME280;5972;42.134;24.718;2022-08-25T06:37:35;99135.66;;;40.07;34.94
11830;BME280;5972;42.134;24.718;2022-08-25T06:40:03;99133.75;;;38.32;38.58
11830;BME280;5972;42.134;24.718;2022-08-25T06:42:33;99131.88;;;37.50;41.09
11830;BME280;5972;42.134;24.718;2022-08-25T06:45:00;99125.34;;;36.73;43.11
11830;BME280;5972;42.134;24.718;2022-08-25T06:47:27;99121.63;;;35.92;45.44
11830;BME280;5972;42.134;24.718;2022-08-25T06:49:54;99124.09;;;35.00;50.74
11830;BME280;5972;42.134;24.718;2022-08-25T06:52:21;99129.72;;;34.48;53.28
11830;BME280;5972;42.134;24.718;2022-08-25T06:54:48;99124.44;;;34.22;55.78
11830;BME280;5972;42.134;24.718;2022-08-25T06:57:15;99115.25;;;34.16;56.69
11830;BME280;5972;42.134;24.718;2022-08-25T06:59:43;99116.97;;;34.41;56.09
11830;BME280;5972;42.134;24.718;2022-08-25T07:02:10;99118.50;;;34.42;56.37
11830;BME280;5972;42.134;24.718;2022-08-25T07:04:37;99112.94;;;34.31;56.43
11830;BME280;5972;42.134;24.718;2022-08-25T07:07:04;99112.91;;;34.37;57.88
11830;BME280;5972;42.134;24.718;2022-08-25T07:09:31;99119.75;;;34.47;57.03
11830;BME280;5972;42.134;24.718;2022-08-25T07:11:58;99107.84;;;34.24;58.42
11830;BME280;5972;42.134;24.718;2022-08-25T07:14:27;99111.91;;;34.29;59.73
11830;BME280;5972;42.134;24.718;2022-08-25T07:16:55;99111.94;;;34.23;60.30
11830;BME280;5972;42.134;24.718;2022-08-25T07:19:22;99104.50;;;34.31;60.34
11830;BME280;5972;42.134;24.718;2022-08-25T07:21:51;99105.00;;;34.35;57.96
11830;BME280;5972;42.134;24.718;2022-08-25T07:24:19;99097.81;;;34.40;58.25
11830;BME280;5972;42.134;24.718;2022-08-25T07:26:46;99095.50;;;34.49;55.40
11830;BME280;5972;42.134;24.718;2022-08-25T07:29:17;99098.56;;;34.46;54.73
11830;BME280;5972;42.134;24.718;2022-08-25T07:31:44;99099.13;;;34.33;57.02
11830;BME280;5972;42.134;24.718;2022-08-25T07:34:12;99100.94;;;34.25;56.37
11830;BME280;5972;42.134;24.718;2022-08-25T07:36:57;99102.97;;;34.19;57.53
11830;BME280;5972;42.134;24.718;2022-08-25T07:39:25;99089.22;;;34.21;56.51
11830;BME280;5972;42.134;24.718;2022-08-25T07:41:52;99107.56;;;34.28;56.51
11830;BME280;5972;42.134;24.718;2022-08-25T07:44:19;99084.59;;;34.29;56.36
11830;BME280;5972;42.134;24.718;2022-08-25T07:46:47;99098.34;;;34.44;56.52
11830;BME280;5972;42.134;24.718;2022-08-25T07:49:15;99104.06;;;34.68;55.22
11830;BME280;5972;42.134;24.718;2022-08-25T07:51:42;99098.69;;;34.76;54.32
11830;BME280;5972;42.134;24.718;2022-08-25T07:54:09;99102.47;;;34.84;54.62
11830;BME280;5972;42.134;24.718;2022-08-25T07:56:36;99100.66;;;34.92;54.28
11830;BME280;5972;42.134;24.718;2022-08-25T07:59:06;99100.56;;;35.03;52.31
11830;BME280;5972;42.134;24.718;2022-08-25T08:01:33;99098.91;;;35.24;52.35
11830;BME280;5972;42.134;24.718;2022-08-25T08:04:00;99102.16;;;35.34;52.82
11830;BME280;5972;42.134;24.718;2022-08-25T08:06:28;99101.78;;;35.49;51.62
11830;BME280;5972;42.134;24.718;2022-08-25T08:08:55;99096.31;;;35.32;53.59
11830;BME280;5972;42.134;24.718;2022-08-25T08:11:24;99095.38;;;35.48;49.30
11830;BME280;5972;42.134;24.718;2022-08-25T08:13:54;99102.66;;;35.62;48.07
11830;BME280;5972;42.134;24.718;2022-08-25T08:16:22;99106.78;;;35.91;47.90
11830;BME280;5972;42.134;24.718;2022-08-25T08:18:50;99092.50;;;36.08;47.56
11830;BME280;5972;42.134;24.718;2022-08-25T08:21:19;99098.00;;;36.43;43.56
11830;BME280;5972;42.134;24.718;2022-08-25T08:23:49;99104.94;;;36.42;43.58
11830;BME280;5972;42.134;24.718;2022-08-25T08:26:17;99103.38;;;36.22;43.81
11830;BME280;5972;42.134;24.718;2022-08-25T08:28:44;99098.97;;;36.27;44.30
11830;BME280;5972;42.134;24.718;2022-08-25T08:31:11;99100.75;;;36.49;42.62
11830;BME280;5972;42.134;24.718;2022-08-25T08:33:38;99104.16;;;36.42;42.36
11830;BME280;5972;42.134;24.718;2022-08-25T08:36:07;99100.81;;;36.62;40.79
11830;BME280;5972;42.134;24.718;2022-08-25T08:38:36;99096.50;;;36.98;41.52
11830;BME280;5972;42.134;24.718;2022-08-25T08:41:16;99099.69;;;37.27;40.89
11830;BME280;5972;42.134;24.718;2022-08-25T08:44:26;99098.38;;;37.28;40.36
11830;BME280;5972;42.134;24.718;2022-08-25T08:47:01;99082.16;;;37.15;40.65
11830;BME280;5972;42.134;24.718;2022-08-25T08:49:35;99100.38;;;36.95;40.54
11830;BME280;5972;42.134;24.718;2022-08-25T08:52:05;99085.31;;;36.93;40.48
11830;BME280;5972;42.134;24.718;2022-08-25T08:54:36;99100.16;;;36.93;41.02
11830;BME280;5972;42.134;24.718;2022-08-25T08:57:09;99097.13;;;37.10;40.06
11830;BME280;5972;42.134;24.718;2022-08-25T08:59:42;99085.56;;;37.27;39.32
11830;BME280;5972;42.134;24.718;2022-08-25T09:02:15;99084.47;;;37.30;39.34
11830;BME280;5972;42.134;24.718;2022-08-25T09:04:48;99096.47;;;37.49;38.78
11830;BME280;5972;42.134;24.718;2022-08-25T09:07:23;99089.63;;;37.44;38.21
11830;BME280;5972;42.134;24.718;2022-08-25T09:09:52;99093.06;;;37.69;38.26
11830;BME280;5972;42.134;24.718;2022-08-25T09:12:30;99095.91;;;37.82;37.08
11830;BME280;5972;42.134;24.718;2022-08-25T09:15:08;99095.28;;;37.90;36.77
11830;BME280;5972;42.134;24.718;2022-08-25T09:17:57;99090.16;;;38.41;35.82
11830;BME280;5972;42.134;24.718;2022-08-25T09:20:53;99077.53;;;38.42;35.29
11830;BME280;5972;42.134;24.718;2022-08-25T09:23:33;99081.03;;;38.61;35.02
11830;BME280;5972;42.134;24.718;2022-08-25T09:26:13;99095.69;;;38.73;34.67
11830;BME280;5972;42.134;24.718;2022-08-25T09:28:48;99091.81;;;38.83;33.77
11830;BME280;5972;42.134;24.718;2022-08-25T09:31:19;99084.63;;;38.95;33.79
11830;BME280;5972;42.134;24.718;2022-08-25T09:33:47;99093.31;;;38.97;33.85
11830;BME280;5972;42.134;24.718;2022-08-25T09:36:15;99075.63;;;39.18;31.44
11830;BME280;5972;42.134;24.718;2022-08-25T09:38:42;99074.28;;;39.19;32.38
11830;BME280;5972;42.134;24.718;2022-08-25T09:41:08;99062.84;;;39.45;31.89
11830;BME280;5972;42.134;24.718;2022-08-25T09:43:40;99066.69;;;39.55;32.41
11830;BME280;5972;42.134;24.718;2022-08-25T09:46:11;99043.28;;;39.55;31.92
11830;BME280;5972;42.134;24.718;2022-08-25T09:48:43;99053.63;;;39.73;32.03
11830;BME280;5972;42.134;24.718;2022-08-25T09:51:19;99045.94;;;39.81;31.13
11830;BME280;5972;42.134;24.718;2022-08-25T09:53:50;99046.75;;;39.89;31.17
11830;BME280;5972;42.134;24.718;2022-08-25T09:56:21;99040.00;;;40.00;31.03
11830;BME280;5972;42.134;24.718;2022-08-25T09:58:49;99036.03;;;39.95;30.58
11830;BME280;5972;42.134;24.718;2022-08-25T10:01:19;99033.28;;;39.82;30.00
11830;BME280;5972;42.134;24.718;2022-08-25T10:03:58;99031.28;;;39.90;29.80
11830;BME280;5972;42.134;24.718;2022-08-25T10:06:27;99027.84;;;39.84;29.71
11830;BME280;5972;42.134;24.718;2022-08-25T10:08:58;99026.84;;;40.10;29.83
11830;BME280;5972;42.134;24.718;2022-08-25T10:11:39;99018.88;;;40.08;30.58
11830;BME280;5972;42.134;24.718;2022-08-25T10:14:17;99022.63;;;40.39;30.25
11830;BME280;5972;42.134;24.718;2022-08-25T10:16:46;99022.22;;;40.35;30.31
11830;BME280;5972;42.134;24.718;2022-08-25T10:19:22;99022.22;;;40.35;29.79
11830;BME280;5972;42.134;24.718;2022-08-25T10:22:03;99010.16;;;40.35;29.40
11830;BME280;5972;42.134;24.718;2022-08-25T10:24:30;99014.06;;;40.24;29.82
11830;BME280;5972;42.134;24.718;2022-08-25T10:27:00;99004.00;;;39.79;30.75
11830;BME280;5972;42.134;24.718;2022-08-25T10:29:52;98987.69;;;38.95;31.06
11830;BME280;5972;42.134;24.718;2022-08-25T10:32:34;98999.00;;;39.16;30.58
11830;BME280;5972;42.134;24.718;2022-08-25T10:35:11;98996.91;;;39.37;nan
11830;BME280;5972;42.134;24.718;2022-08-25T10:37:44;98991.50;;;39.46;29.44
11830;BME280;5972;42.134;24.718;2022-08-25T10:40:20;98993.56;;;39.46;30.38
11830;BME280;5972;42.134;24.718;2022-08-25T10:42:58;98990.38;;;39.00;30.52
11830;BME280;5972;42.134;24.718;2022-08-25T10:45:35;98998.72;;;38.51;31.90
11830;BME280;5972;42.134;24.718;2022-08-25T10:51:21;98978.53;;;38.34;32.28
11830;BME280;5972;42.134;24.718;2022-08-25T10:53:57;98981.03;;;38.24;31.92
11830;BME280;5972;42.134;24.718;2022-08-25T10:56:32;98980.81;;;38.36;30.24
11830;BME280;5972;42.134;24.718;2022-08-25T10:59:12;98962.75;;;38.73;30.74
11830;BME280;5972;42.134;24.718;2022-08-25T11:02:04;98963.44;;;39.07;30.26
11830;BME280;5972;42.134;24.718;2022-08-25T11:04:39;98968.97;;;38.92;29.84
11830;BME280;5972;42.134;24.718;2022-08-25T11:07:18;98972.72;;;38.74;29.97
11830;BME280;5972;42.134;24.718;2022-08-25T11:09:50;98969.59;;;37.57;31.40
11830;BME280;5972;42.134;24.718;2022-08-25T11:12:26;98972.47;;;37.12;31.94
11830;BME280;5972;42.134;24.718;2022-08-25T11:14:57;98964.38;;;36.89;33.04
11830;BME280;5972;42.134;24.718;2022-08-25T11:17:38;98959.47;;;36.90;34.15
11830;BME280;5972;42.134;24.718;2022-08-25T11:20:11;98967.38;;;37.23;33.84
11830;BME280;5972;42.134;24.718;2022-08-25T11:22:45;98962.59;;;37.18;34.20
11830;BME280;5972;42.134;24.718;2022-08-25T11:25:16;98961.66;;;37.42;33.70
11830;BME280;5972;42.134;24.718;2022-08-25T11:27:47;98955.22;;;37.41;33.32
11830;BME280;5972;42.134;24.718;2022-08-25T11:30:17;98960.28;;;37.62;33.34
11830;BME280;5972;42.134;24.718;2022-08-25T11:32:47;98954.84;;;37.77;32.24
11830;BME280;5972;42.134;24.718;2022-08-25T11:35:19;98954.59;;;38.01;32.49
11830;BME280;5972;42.134;24.718;2022-08-25T11:38:01;98951.31;;;38.10;31.21
11830;BME280;5972;42.134;24.718;2022-08-25T11:40:42;98953.94;;;37.95;31.98
11830;BME280;5972;42.134;24.718;2022-08-25T11:43:28;98947.50;;;38.08;31.48
11830;BME280;5972;42.134;24.718;2022-08-25T11:46:10;98945.47;;;37.95;31.15
11830;BME280;5972;42.134;24.718;2022-08-25T11:48:49;98928.84;;;37.92;31.73
11830;BME280;5972;42.134;24.718;2022-08-25T11:51:30;98938.22;;;37.60;31.63
11830;BME280;5972;42.134;24.718;2022-08-25T11:54:22;98941.34;;;37.43;31.89
11830;BME280;5972;42.134;24.718;2022-08-25T11:56:54;98938.06;;;37.13;32.74
11830;BME280;5972;42.134;24.718;2022-08-25T12:00:00;98933.97;;;36.95;32.07
11830;BME280;5972;42.134;24.718;2022-08-25T12:02:43;98934.53;;;36.94;33.29
11830;BME280;5972;42.134;24.718;2022-08-25T12:08:13;98930.63;;;36.84;32.87
11830;BME280;5972;42.134;24.718;2022-08-25T12:10:59;98942.84;;;37.18;32.41
11830;BME280;5972;42.134;24.718;2022-08-25T12:13:42;98927.19;;;37.04;32.43
11830;BME280;5972;42.134;24.718;2022-08-25T12:16:41;98936.53;;;37.12;32.62
11830;BME280;5972;42.134;24.718;2022-08-25T12:19:28;98935.75;;;36.98;32.70
11830;BME280;5972;42.134;24.718;2022-08-25T12:21:57;98921.50;;;36.91;31.90
11830;BME280;5972;42.134;24.718;2022-08-25T12:24:49;98926.84;;;36.94;31.65
11830;BME280;5972;42.134;24.718;2022-08-25T12:27:24;98924.22;;;36.83;31.52
11830;BME280;5972;42.134;24.718;2022-08-25T12:29:58;98926.06;;;36.62;32.16
11830;BME280;5972;42.134;24.718;2022-08-25T12:32:55;98920.84;;;36.53;31.64
11830;BME280;5972;42.134;24.718;2022-08-25T12:35:30;98908.50;;;36.56;31.90
11830;BME280;5972;42.134;24.718;2022-08-25T12:38:03;98922.47;;;36.80;31.37
11830;BME280;5972;42.134;24.718;2022-08-25T12:40:36;98909.84;;;36.68;31.33
11830;BME280;5972;42.134;24.718;2022-08-25T12:43:08;98910.94;;;36.65;31.80
11830;BME280;5972;42.134;24.718;2022-08-25T12:45:41;98901.34;;;36.55;32.03
11830;BME280;5972;42.134;24.718;2022-08-25T12:48:41;98900.69;;;36.30;32.25
11830;BME280;5972;42.134;24.718;2022-08-25T12:51:15;98891.94;;;35.96;32.88
11830;BME280;5972;42.134;24.718;2022-08-25T12:53:46;98889.34;;;36.17;33.39
11830;BME280;5972;42.134;24.718;2022-08-25T12:56:26;98905.34;;;36.59;32.45
11830;BME280;5972;42.134;24.718;2022-08-25T12:59:02;98896.22;;;36.53;32.25
11830;BME280;5972;42.134;24.718;2022-08-25T13:01:42;98897.28;;;36.69;32.13
11830;BME280;5972;42.134;24.718;2022-08-25T13:04:30;98807.53;;;36.41;31.35
11830;BME280;5972;42.134;24.718;2022-08-25T13:07:12;98884.75;;;36.83;31.55
11830;BME280;5972;42.134;24.718;2022-08-25T13:10:22;98897.22;;;36.88;32.20
11830;BME280;5972;42.134;24.718;2022-08-25T13:12:58;98901.03;;;37.03;31.81
11830;BME280;5972;42.134;24.718;2022-08-25T13:15:36;98878.44;;;36.90;31.82
11830;BME280;5972;42.134;24.718;2022-08-25T13:18:21;98883.75;;;36.81;31.94
11830;BME280;5972;42.134;24.718;2022-08-25T13:20:50;98897.31;;;36.82;32.11
11830;BME280;5972;42.134;24.718;2022-08-25T13:23:23;98891.53;;;36.43;33.16